Jawor — C6YH8 — position and weather

sailwx.info

Track history (hours):
 
Tides and Currents Weather Stations Pressure Air Temp Water Temp Dewpoint Dewpoint Depression Visibility Wind Speed Wind Dir Waves Ship Positions

Jawor

Last reported at 2017-Aug-23 14:50 UTC. Time now 2017-Aug-23 15:35 UTC.
Position N 31°28' E 031°46'.

Length 229 m; draft 12.7 m.

Type: Cargo ship. MMSI: 311034100.

Date/timePositionNaut miles runAvg speedWind from/ knotsBaromVisibWave heightAir tempDewpointWater temp
2017-Aug-23 14:50N 31°28' E 031°46'  
2017-Aug-20 05:53N 31°28' E 031°46'0 0.0
2017-Aug-20 05:26N 31°28' E 031°46'0 0.0
2017-Aug-20 04:59N 31°28' E 031°46'0 0.0
2017-Aug-19 17:11N 31°28' E 031°46'0 0.0
2017-Aug-19 16:56N 31°28' E 031°46'  
2017-Aug-14 13:50N 37°23' E 025°55'410.7
2017-Aug-14 13:30N 37°24' E 025°51'510.7
2017-Aug-14 13:00N 37°28' E 025°46'611.5
2017-Aug-14 12:30N 37°34' E 025°44'611.5
2017-Aug-14 12:00N 37°39' E 025°42'611.4
2017-Aug-14 11:30N 37°44' E 025°39'611.4
2017-Aug-14 11:00N 37°50' E 025°37'  
Track history (hours):
 
Tides and Currents Weather Stations Pressure Air Temp Water Temp Dewpoint Dewpoint Depression Visibility Wind Speed Wind Dir Waves Ship Positions

Jawor

Last reported at 2017-Aug-23 14:50 UTC. Time now 2017-Aug-23 15:35 UTC.
Position N 31°28' E 031°46'.

Length 229 m; draft 12.7 m.

Type: Cargo ship. MMSI: 311034100.

Date/timePositionNaut miles runAvg speedWind from/ knotsBaromVisibWave heightAir tempDewpointWater temp
2017-Aug-23 14:50N 31°28' E 031°46'  
2017-Aug-20 05:53N 31°28' E 031°46'0 0.0
2017-Aug-20 05:26N 31°28' E 031°46'0 0.0
2017-Aug-20 04:59N 31°28' E 031°46'0 0.0
2017-Aug-19 17:11N 31°28' E 031°46'0 0.0
2017-Aug-19 16:56N 31°28' E 031°46'  
2017-Aug-14 13:50N 37°23' E 025°55'410.7
2017-Aug-14 13:30N 37°24' E 025°51'510.7
2017-Aug-14 13:00N 37°28' E 025°46'611.5
2017-Aug-14 12:30N 37°34' E 025°44'611.5
2017-Aug-14 12:00N 37°39' E 025°42'611.4
2017-Aug-14 11:30N 37°44' E 025°39'611.4
2017-Aug-14 11:00N 37°50' E 025°37'  

Dump ship's entire track history